createdAt,value
2022-12-09T00:02:12.118Z,4.98
2022-12-09T00:07:14.822Z,5.01
2022-12-09T00:12:17.745Z,4.88
2022-12-09T00:17:21.756Z,4.79
2022-12-09T00:22:24.345Z,4.86
2022-12-09T00:27:26.900Z,4.85
2022-12-09T00:32:30.873Z,4.89
2022-12-09T00:37:34.998Z,4.88
2022-12-09T00:42:37.637Z,4.89
2022-12-09T00:47:41.595Z,4.79
2022-12-09T00:52:44.485Z,4.79
2022-12-09T00:57:47.359Z,4.79
2022-12-09T01:02:51.645Z,4.84
2022-12-09T01:07:54.601Z,4.80
2022-12-09T01:12:57.212Z,4.80
2022-12-09T01:18:01.303Z,4.82
2022-12-09T01:23:04.708Z,4.83
2022-12-09T01:28:07.329Z,4.80
2022-12-09T01:33:11.563Z,4.81
2022-12-09T01:38:14.780Z,4.86
2022-12-09T01:43:19.274Z,4.55
2022-12-09T01:48:26.429Z,4.80
2022-12-09T01:53:32.924Z,4.83
2022-12-09T01:58:35.850Z,4.71
2022-12-09T02:03:40.956Z,4.72
2022-12-09T02:08:44.808Z,4.79
2022-12-09T02:13:59.276Z,4.74
2022-12-09T02:19:17.626Z,4.68
2022-12-09T02:24:29.337Z,4.70
2022-12-09T02:29:54.700Z,4.58
2022-12-09T02:35:06.431Z,4.63
2022-12-09T02:40:16.877Z,4.70
2022-12-09T02:45:23.781Z,4.69
2022-12-09T02:50:35.621Z,4.69
2022-12-09T02:55:41.693Z,4.67
2022-12-09T03:00:45.260Z,4.62
2022-12-09T03:05:55.727Z,4.59
2022-12-09T03:11:02.306Z,4.60
2022-12-09T03:16:11.511Z,4.60
2022-12-09T03:21:19.547Z,4.63
2022-12-09T03:26:24.941Z,4.65
2022-12-09T03:31:31.867Z,4.05
2022-12-09T03:36:39.894Z,4.60
2022-12-09T03:41:45.938Z,4.64
2022-12-09T03:46:49.186Z,4.58
2022-12-09T03:51:58.010Z,4.62
2022-12-09T03:57:02.211Z,4.69
2022-12-09T04:02:07.583Z,4.59
2022-12-09T04:07:11.722Z,4.75
2022-12-09T04:12:17.652Z,4.68
2022-12-09T04:17:20.348Z,4.75
2022-12-09T04:22:24.753Z,4.68
2022-12-09T04:27:29.359Z,4.68
2022-12-09T04:32:33.669Z,4.67
2022-12-09T04:37:37.965Z,4.64
2022-12-09T04:42:40.601Z,4.53
2022-12-09T04:47:43.175Z,4.57
2022-12-09T04:52:47.175Z,4.46
2022-12-09T04:57:50.634Z,4.10
2022-12-09T05:02:53.535Z,4.33
2022-12-09T05:07:57.937Z,4.38
2022-12-09T05:13:01.544Z,4.52
2022-12-09T05:18:04.525Z,4.15
2022-12-09T05:23:09.869Z,4.22
2022-12-09T05:28:12.983Z,4.33
2022-12-09T05:33:15.970Z,4.18
2022-12-09T05:38:20.321Z,4.24
2022-12-09T05:43:23.274Z,4.26
2022-12-09T05:48:26.354Z,4.41
2022-12-09T05:53:31.516Z,4.36
2022-12-09T05:58:34.984Z,4.48
2022-12-09T06:03:38.766Z,4.32
2022-12-09T06:08:44.383Z,4.39
2022-12-09T06:13:47.915Z,4.43
2022-12-09T06:18:51.522Z,4.45
2022-12-09T06:23:56.306Z,4.54
2022-12-09T06:29:00.545Z,4.56
2022-12-09T06:34:03.721Z,4.57
2022-12-09T06:39:10.613Z,4.56
2022-12-09T06:44:19.953Z,4.56
2022-12-09T06:49:26.302Z,4.54
2022-12-09T06:54:30.488Z,4.62
2022-12-09T06:59:42.975Z,4.60
2022-12-09T07:04:48.729Z,4.46
2022-12-09T07:09:53.447Z,4.53
2022-12-09T07:14:56.428Z,4.52
2022-12-09T07:20:04.956Z,4.55
2022-12-09T07:25:11.304Z,4.50
2022-12-09T07:30:14.884Z,4.53
2022-12-09T07:35:18.060Z,4.58
2022-12-09T07:40:22.166Z,4.47
2022-12-09T07:45:24.885Z,4.42
2022-12-09T07:50:27.636Z,4.50
2022-12-09T07:55:31.886Z,4.53
2022-12-09T08:00:34.719Z,4.61
2022-12-09T08:05:37.824Z,4.60
2022-12-09T08:10:42.510Z,4.65
2022-12-09T08:15:45.898Z,4.66
2022-12-09T08:20:48.806Z,4.75
2022-12-09T08:25:55.394Z,4.66
2022-12-09T08:30:59.324Z,4.70
2022-12-09T08:36:02.616Z,4.85
2022-12-09T08:41:11.884Z,4.88
2022-12-09T08:46:15.630Z,4.83
2022-12-09T08:51:19.128Z,4.72
2022-12-09T08:56:23.871Z,4.74
2022-12-09T09:01:32.263Z,4.64
2022-12-09T09:06:36.299Z,4.43
2022-12-09T09:11:42.084Z,4.52
2022-12-09T09:16:46.410Z,4.62
2022-12-09T09:21:49.788Z,4.65
2022-12-09T09:26:54.846Z,4.81
2022-12-09T09:31:57.893Z,4.94
2022-12-09T09:37:01.133Z,5.03
2022-12-09T09:42:09.066Z,5.20
2022-12-09T09:47:17.025Z,5.24
2022-12-09T09:52:22.557Z,5.03
2022-12-09T09:57:32.662Z,5.20
2022-12-09T10:02:57.999Z,5.23
2022-12-09T10:08:19.836Z,5.19
2022-12-09T10:13:37.652Z,5.23
2022-12-09T10:18:50.219Z,5.27
2022-12-09T10:23:56.482Z,5.24
2022-12-09T10:29:21.310Z,5.41
2022-12-09T10:34:25.106Z,5.30
2022-12-09T10:39:29.893Z,5.35
2022-12-09T10:44:34.095Z,5.34
2022-12-09T10:49:37.165Z,5.15
2022-12-09T10:54:44.751Z,5.31
2022-12-09T11:00:00.754Z,5.39
2022-12-09T11:05:25.539Z,5.28
2022-12-09T11:10:31.087Z,5.28
2022-12-09T11:15:41.542Z,5.36
2022-12-09T11:20:56.144Z,5.50
2022-12-09T11:26:01.139Z,5.56
2022-12-09T11:36:35.336Z,5.38
2022-12-09T11:42:05.114Z,5.45
2022-12-09T11:47:11.817Z,5.50
2022-12-09T11:52:25.304Z,5.61
2022-12-09T11:57:45.347Z,5.67
2022-12-09T12:02:57.741Z,5.63
2022-12-09T12:08:08.968Z,5.49
2022-12-09T12:13:23.609Z,5.68
2022-12-09T12:18:31.973Z,5.73
2022-12-09T12:23:50.974Z,5.64
2022-12-09T12:29:11.018Z,5.67
2022-12-09T12:34:25.737Z,5.72
2022-12-09T12:39:43.107Z,5.67
2022-12-09T12:45:10.778Z,5.63
2022-12-09T12:50:39.656Z,5.60
2022-12-09T12:56:02.621Z,5.69
2022-12-09T13:01:13.681Z,5.69
2022-12-09T13:06:22.006Z,5.81
2022-12-09T13:11:30.460Z,5.83
2022-12-09T13:16:39.168Z,5.89
2022-12-09T13:21:45.238Z,5.76
2022-12-09T13:26:56.426Z,5.94
2022-12-09T13:32:09.232Z,6.01
2022-12-09T13:37:57.405Z,5.96
2022-12-09T13:43:10.723Z,5.96
2022-12-09T13:48:47.360Z,5.30
2022-12-09T13:54:00.700Z,5.75
2022-12-09T13:59:36.599Z,5.62
2022-12-09T14:04:48.523Z,5.61
2022-12-09T14:09:55.774Z,5.45
2022-12-09T14:15:01.340Z,5.39
2022-12-09T14:20:20.357Z,5.29
2022-12-09T14:25:55.394Z,5.03
2022-12-09T14:31:06.569Z,4.81
2022-12-09T14:36:27.900Z,4.63
2022-12-09T14:41:39.565Z,4.59
2022-12-09T14:46:46.300Z,4.48
2022-12-09T14:51:50.930Z,4.62
2022-12-09T14:56:58.653Z,4.50
2022-12-09T15:02:04.221Z,4.53
2022-12-09T15:07:08.941Z,4.60
2022-12-09T15:12:13.153Z,4.56
2022-12-09T15:17:26.601Z,4.50
2022-12-09T15:22:31.874Z,4.62
2022-12-09T15:27:35.759Z,4.68
2022-12-09T15:32:39.795Z,4.77
2022-12-09T15:37:42.553Z,4.60
2022-12-09T15:42:51.357Z,4.62
2022-12-09T15:47:57.775Z,4.69
2022-12-09T15:53:08.794Z,4.64
2022-12-09T15:58:18.108Z,4.42
2022-12-09T16:03:23.538Z,4.52
2022-12-09T16:08:34.624Z,4.60
2022-12-09T16:13:57.949Z,4.70
2022-12-09T16:19:00.474Z,4.61
2022-12-09T16:24:11.560Z,4.64
2022-12-09T16:29:22.659Z,4.59
2022-12-09T16:34:27.460Z,4.60
2022-12-09T16:39:35.625Z,4.41
2022-12-09T16:44:40.465Z,4.29
2022-12-09T16:49:46.275Z,4.18
2022-12-09T16:54:50.863Z,4.31
2022-12-09T16:59:54.888Z,4.31
2022-12-09T17:04:57.879Z,4.49
2022-12-09T17:10:00.399Z,4.57
2022-12-09T17:15:04.779Z,4.58
2022-12-09T17:20:08.667Z,4.69
2022-12-09T17:25:11.246Z,4.66
2022-12-09T17:30:15.471Z,4.49
2022-12-09T17:35:18.916Z,3.83
2022-12-09T17:40:21.791Z,3.99
2022-12-09T17:45:25.659Z,3.63
2022-12-09T17:50:28.251Z,4.17
2022-12-09T17:55:31.110Z,4.01
2022-12-09T18:00:35.195Z,3.76
2022-12-09T18:05:38.489Z,3.67
2022-12-09T18:10:42.046Z,3.72
2022-12-09T18:15:49.789Z,3.64
2022-12-09T18:21:00.447Z,3.67
2022-12-09T18:26:07.781Z,3.76
2022-12-09T18:31:15.149Z,3.79
2022-12-09T18:36:19.778Z,3.68
2022-12-09T18:41:24.826Z,3.63
2022-12-09T18:46:30.154Z,3.81
2022-12-09T18:51:33.419Z,3.81
2022-12-09T18:56:37.016Z,3.31
2022-12-09T19:01:42.718Z,3.92
2022-12-09T19:06:47.806Z,3.74
2022-12-09T19:11:52.251Z,3.76
2022-12-09T19:16:56.452Z,3.64
2022-12-09T19:21:59.560Z,3.65
2022-12-09T19:27:02.209Z,3.71
2022-12-09T19:32:23.557Z,3.70
2022-12-09T19:37:29.270Z,3.74
2022-12-09T19:42:32.139Z,3.76
2022-12-09T19:47:36.467Z,3.69
2022-12-09T19:52:39.133Z,3.58
2022-12-09T19:57:41.823Z,2.18
2022-12-09T20:02:45.893Z,3.64
2022-12-09T20:07:49.144Z,3.26
2022-12-09T20:12:52.419Z,3.45
2022-12-09T20:17:56.378Z,3.50
2022-12-09T20:22:59.012Z,3.63
2022-12-09T20:28:01.715Z,3.62
2022-12-09T20:33:05.865Z,3.52
2022-12-09T20:38:08.414Z,3.44
2022-12-09T20:43:11.023Z,3.55
2022-12-09T20:48:15.049Z,3.52
2022-12-09T20:53:18.872Z,3.50
2022-12-09T20:58:21.545Z,2.86
2022-12-09T21:03:25.637Z,3.45
2022-12-09T21:08:31.453Z,3.48
2022-12-09T21:13:37.773Z,3.62
2022-12-09T21:18:41.652Z,3.46
2022-12-09T21:23:44.647Z,3.54
2022-12-09T21:28:48.526Z,3.60
2022-12-09T21:33:54.320Z,3.55
2022-12-09T21:38:57.266Z,3.61
2022-12-09T21:44:00.189Z,3.17
2022-12-09T21:49:06.803Z,3.66
2022-12-09T21:54:09.619Z,3.64
2022-12-09T21:59:12.709Z,3.50
2022-12-09T22:04:17.500Z,3.40
2022-12-09T22:09:20.927Z,3.30
2022-12-09T22:14:23.660Z,3.40
2022-12-09T22:19:27.576Z,3.25
2022-12-09T22:24:30.120Z,3.26
2022-12-09T22:29:32.622Z,3.20
2022-12-09T22:34:36.463Z,3.16
2022-12-09T22:39:40.819Z,3.03
2022-12-09T22:44:43.354Z,3.08
2022-12-09T22:49:47.356Z,3.02
2022-12-09T22:54:49.891Z,2.95
2022-12-09T22:59:52.547Z,2.82
2022-12-09T23:04:56.391Z,3.00
2022-12-09T23:09:58.915Z,2.89
2022-12-09T23:15:01.533Z,2.87
2022-12-09T23:20:06.614Z,2.79
2022-12-09T23:25:09.946Z,2.58
2022-12-09T23:30:13.890Z,2.68
2022-12-09T23:35:18.135Z,2.48
2022-12-09T23:40:20.709Z,2.29
2022-12-09T23:45:23.197Z,2.31
2022-12-09T23:50:27.073Z,1.85
2022-12-09T23:55:29.607Z,1.93
